Time;durP1;ratioP1;P1;durP2;ratioP2;P2;SDS_P1;SDS_P2;PMS_P1;PMS_P2;Temp;Humidity;BMP_temperature;BMP_pressure;BME280_temperature;BME280_humidity;BME280_pressure;Samples;Min_cycle;Max_cycle;Signal;HPM_P1;HPM_P2
2021/08/03 00:01:03;;;;;;;28.10;25.17;;;13.50;92.40;;;;;;5104188;28;20649;-81
2021/08/03 00:03:49;;;;;;;29.52;26.45;;;13.60;92.40;;;;;;5114017;28;20040;-81
2021/08/03 00:06:16;;;;;;;27.10;24.08;;;13.60;92.40;;;;;;5112821;28;20031;-80
2021/08/03 00:08:48;;;;;;;27.20;24.23;;;13.60;92.30;;;;;;5104827;28;20068;-81
2021/08/03 00:11:14;;;;;;;26.58;23.60;;;13.60;92.30;;;;;;5092736;28;20093;-81
2021/08/03 00:13:40;;;;;;;31.05;24.73;;;13.60;92.20;;;;;;5112333;28;20016;-81
2021/08/03 00:16:10;;;;;;;27.30;24.17;;;13.60;92.20;;;;;;5099537;28;20375;-80
2021/08/03 00:18:40;;;;;;;26.92;23.77;;;13.70;92.20;;;;;;5116836;28;20073;-80
2021/08/03 00:21:08;;;;;;;26.17;23.40;;;13.70;92.10;;;;;;5118048;28;20024;-80
2021/08/03 00:23:36;;;;;;;24.45;21.92;;;13.70;92.00;;;;;;5117072;28;20371;-81
2021/08/03 00:26:02;;;;;;;20.80;18.63;;;13.70;91.90;;;;;;5130463;28;20024;-81
2021/08/03 00:28:28;;;;;;;21.55;19.25;;;13.60;91.70;;;;;;5137605;28;20019;-81
2021/08/03 00:30:54;;;;;;;22.75;19.58;;;13.50;91.70;;;;;;5138265;28;20045;-83
2021/08/03 00:33:20;;;;;;;24.23;21.65;;;13.40;91.70;;;;;;5139410;28;20047;-81
2021/08/03 00:35:50;;;;;;;24.42;21.88;;;13.40;91.80;;;;;;5121429;28;20081;-85
2021/08/03 00:38:16;;;;;;;24.92;21.60;;;13.30;91.70;;;;;;5138370;28;20028;-84
2021/08/03 00:40:51;;;;;;;24.08;21.60;;;13.30;91.80;;;;;;5138716;28;20034;-84
2021/08/03 00:43:16;;;;;;;26.90;22.08;;;13.40;91.80;;;;;;5138216;28;20103;-84
2021/08/03 00:45:42;;;;;;;24.45;22.05;;;13.40;91.70;;;;;;5118474;28;20035;-82
2021/08/03 00:48:09;;;;;;;23.95;21.38;;;13.40;91.80;;;;;;5103230;28;20031;-80
2021/08/03 00:50:34;;;;;;;25.13;21.35;;;13.40;91.80;;;;;;5126299;28;20024;-80
2021/08/03 00:53:02;;;;;;;23.45;20.98;;;13.50;91.70;;;;;;5122081;28;20032;-80
2021/08/03 00:55:27;;;;;;;23.60;21.13;;;13.40;91.60;;;;;;5113416;28;20038;-80
2021/08/03 00:57:54;;;;;;;24.00;21.17;;;13.40;91.70;;;;;;5089813;28;20034;-81
2021/08/03 01:00:20;;;;;;;22.92;20.55;;;13.40;91.80;;;;;;5125994;28;20048;-80
2021/08/03 01:02:46;;;;;;;24.02;21.52;;;13.50;91.80;;;;;;5123982;28;20051;-83
2021/08/03 01:05:11;;;;;;;22.98;20.05;;;13.60;91.60;;;;;;5123514;28;20019;-81
2021/08/03 01:07:43;;;;;;;21.83;19.73;;;13.50;91.40;;;;;;5119603;28;20470;-80
2021/08/03 01:10:21;;;;;;;23.27;19.75;;;13.40;91.50;;;;;;5116372;28;20019;-81
2021/08/03 01:12:53;;;;;;;21.80;19.52;;;13.40;91.50;;;;;;5114859;28;20045;-82
2021/08/03 01:15:23;;;;;;;21.27;19.08;;;13.40;91.50;;;;;;5115313;28;20020;-80
2021/08/03 01:18:03;;;;;;;24.40;20.45;;;13.40;91.50;;;;;;5116774;28;20035;-82
2021/08/03 01:20:49;;;;;;;23.63;21.15;;;13.40;91.50;;;;;;5114925;28;20023;-81
2021/08/03 01:24:11;;;;;;;23.30;19.13;;;13.40;91.60;;;;;;5114603;28;20031;-81
2021/08/03 01:26:39;;;;;;;21.67;19.40;;;13.40;91.70;;;;;;5052612;28;20037;-80
2021/08/03 01:29:08;;;;;;;21.63;19.50;;;13.40;91.70;;;;;;5048953;28;20075;-80
2021/08/03 01:31:40;;;;;;;21.73;19.48;;;13.40;91.60;;;;;;5079252;28;20055;-80
2021/08/03 01:34:12;;;;;;;21.73;19.45;;;13.40;91.60;;;;;;5111091;28;20024;-80
2021/08/03 01:36:41;;;;;;;22.15;19.77;;;13.40;91.70;;;;;;5115124;28;20032;-80
2021/08/03 01:39:08;;;;;;;21.23;19.05;;;13.40;91.60;;;;;;5093370;28;20498;-79
2021/08/03 01:41:34;;;;;;;21.67;19.38;;;13.50;91.60;;;;;;5116374;28;20027;-80
2021/08/03 01:44:03;;;;;;;20.80;18.23;;;13.50;91.60;;;;;;5093886;28;20044;-81
2021/08/03 01:46:31;;;;;;;20.15;18.17;;;13.60;91.50;;;;;;5096791;28;20024;-80
2021/08/03 01:48:59;;;;;;;20.08;18.15;;;13.60;91.40;;;;;;5114125;28;20042;-81
2021/08/03 01:51:27;;;;;;;20.20;18.10;;;13.60;91.30;;;;;;5116498;28;20020;-81
2021/08/03 01:53:55;;;;;;;21.10;18.85;;;13.50;91.30;;;;;;5114873;28;20098;-82
2021/08/03 01:56:23;;;;;;;20.20;18.20;;;13.60;91.40;;;;;;5114332;28;20019;-80
2021/08/03 01:58:49;;;;;;;20.52;18.40;;;13.60;91.40;;;;;;5115740;28;20106;-80
2021/08/03 02:01:18;;;;;;;22.63;18.65;;;13.60;91.40;;;;;;5114772;28;20059;-80
2021/08/03 02:03:45;;;;;;;21.15;18.58;;;13.50;91.30;;;;;;5114794;28;20071;-80
2021/08/03 02:06:11;;;;;;;22.38;19.17;;;13.50;91.40;;;;;;5097047;28;20031;-80
2021/08/03 02:08:37;;;;;;;20.88;18.95;;;13.50;91.50;;;;;;5114620;28;20024;-81
2021/08/03 02:11:04;;;;;;;21.42;19.25;;;13.50;91.50;;;;;;5115195;28;20095;-80
2021/08/03 02:13:31;;;;;;;21.42;19.30;;;13.50;91.50;;;;;;5114338;28;20039;-80
2021/08/03 02:15:56;;;;;;;21.23;19.20;;;13.50;91.50;;;;;;5114626;28;20062;-83
2021/08/03 02:18:22;;;;;;;21.05;18.92;;;13.40;91.50;;;;;;5115092;28;20348;-80
2021/08/03 02:20:48;;;;;;;21.20;18.98;;;13.40;91.50;;;;;;5102513;28;20028;-80
2021/08/03 02:23:15;;;;;;;22.73;18.70;;;13.30;91.60;;;;;;5110608;28;20031;-80
2021/08/03 02:25:41;;;;;;;22.00;19.70;;;13.30;91.70;;;;;;5136644;28;20038;-83
2021/08/03 02:28:07;;;;;;;21.42;19.00;;;13.30;91.70;;;;;;5137901;28;20038;-84
2021/08/03 02:30:34;;;;;;;24.13;19.15;;;13.30;91.70;;;;;;5139292;28;20079;-80
2021/08/03 02:33:16;;;;;;;22.95;19.15;;;13.30;91.60;;;;;;5135937;28;20051;-85
2021/08/03 02:35:52;;;;;;;21.13;18.90;;;13.30;91.70;;;;;;5137331;28;20015;-80
2021/08/03 02:38:23;;;;;;;24.25;19.60;;;13.20;91.70;;;;;;5135922;28;20088;-80
2021/08/03 02:40:50;;;;;;;21.10;18.17;;;13.20;91.70;;;;;;5136630;28;20035;-80
2021/08/03 02:43:18;;;;;;;22.60;20.20;;;13.30;91.80;;;;;;5119058;28;20399;-80
2021/08/03 02:45:45;;;;;;;20.00;17.90;;;13.30;91.70;;;;;;5119076;28;20019;-80
2021/08/03 02:48:14;;;;;;;20.33;18.23;;;13.40;91.70;;;;;;5109362;28;20036;-80
2021/08/03 02:50:45;;;;;;;19.70;17.80;;;13.50;91.70;;;;;;5104664;28;20042;-80
2021/08/03 02:53:25;;;;;;;19.52;17.42;;;13.50;91.60;;;;;;5098453;28;20039;-79
2021/08/03 02:55:55;;;;;;;20.63;17.17;;;13.60;91.50;;;;;;5099951;28;20024;-80
2021/08/03 02:58:47;;;;;;;18.38;16.55;;;13.60;91.70;;;;;;5097897;28;20031;-79
2021/08/03 03:01:15;;;;;;;19.52;17.52;;;13.50;91.40;;;;;;5085159;28;20032;-80
2021/08/03 03:03:46;;;;;;;20.00;17.85;;;13.50;91.40;;;;;;5093643;28;20035;-80
2021/08/03 03:06:14;;;;;;;20.70;16.75;;;13.50;91.40;;;;;;5094474;28;20511;-80
2021/08/03 03:08:43;;;;;;;19.10;17.08;;;13.50;91.40;;;;;;5092955;28;20424;-80
2021/08/03 03:11:11;;;;;;;19.05;16.83;;;13.50;91.40;;;;;;5094119;28;20427;-80
2021/08/03 03:13:39;;;;;;;18.95;17.00;;;13.50;91.30;;;;;;5110952;28;20024;-81
2021/08/03 03:16:07;;;;;;;18.52;16.48;;;13.50;91.40;;;;;;5112832;28;20027;-82
2021/08/03 03:18:34;;;;;;;17.40;15.63;;;13.60;91.40;;;;;;5112976;28;20028;-80
2021/08/03 03:21:02;;;;;;;16.83;15.15;;;13.60;91.40;;;;;;5112478;28;20073;-80
2021/08/03 03:23:32;;;;;;;19.55;15.40;;;13.70;91.40;;;;;;5103148;28;20425;-80
2021/08/03 03:25:59;;;;;;;19.70;16.17;;;13.80;91.40;;;;;;5097076;28;20471;-80
2021/08/03 03:28:28;;;;;;;17.25;15.50;;;13.80;91.20;;;;;;5111712;28;20016;-80
2021/08/03 03:30:55;;;;;;;20.85;14.57;;;13.80;91.20;;;;;;5113345;28;20058;-81
2021/08/03 03:33:23;;;;;;;18.33;14.95;;;13.70;91.20;;;;;;5111901;28;20028;-80
2021/08/03 03:35:51;;;;;;;16.23;14.60;;;13.80;91.30;;;;;;5107478;28;20024;-80
2021/08/03 03:38:23;;;;;;;16.45;14.35;;;13.90;91.30;;;;;;5102734;28;20085;-80
2021/08/03 03:40:50;;;;;;;17.58;14.38;;;13.80;91.20;;;;;;5112324;28;20016;-80
2021/08/03 03:43:20;;;;;;;15.73;14.02;;;13.80;91.20;;;;;;5111488;28;20035;-80
2021/08/03 03:45:53;;;;;;;16.77;14.23;;;13.80;91.20;;;;;;5107276;28;20095;-79
2021/08/03 03:48:22;;;;;;;20.17;14.68;;;13.80;91.20;;;;;;5091591;28;20090;-80
2021/08/03 03:50:55;;;;;;;15.55;14.00;;;13.80;91.20;;;;;;5097507;28;20007;-80
2021/08/03 03:53:23;;;;;;;15.88;14.18;;;13.80;91.20;;;;;;5105655;28;20028;-80
2021/08/03 03:55:57;;;;;;;17.15;15.10;;;13.90;91.20;;;;;;5076960;28;20032;-80
2021/08/03 03:58:24;;;;;;;16.85;15.35;;;13.90;91.10;;;;;;5107557;28;20100;-80
2021/08/03 04:00:50;;;;;;;16.30;14.70;;;13.80;91.00;;;;;;5113748;28;20030;-79
2021/08/03 04:03:18;;;;;;;16.42;14.82;;;13.70;91.10;;;;;;5112738;28;20040;-80
2021/08/03 04:05:49;;;;;;;16.00;14.40;;;13.60;91.20;;;;;;5114437;28;20019;-80
2021/08/03 04:08:15;;;;;;;18.17;14.45;;;13.50;91.20;;;;;;5096115;28;20050;-79
2021/08/03 04:10:42;;;;;;;19.10;15.82;;;13.50;91.30;;;;;;5095206;28;20052;-79
2021/08/03 04:13:09;;;;;;;17.25;15.32;;;13.40;91.30;;;;;;5113699;28;20055;-79
2021/08/03 04:15:35;;;;;;;19.52;17.17;;;13.30;91.40;;;;;;5112824;28;20032;-79
2021/08/03 04:18:01;;;;;;;16.92;15.25;;;13.30;91.50;;;;;;5111889;28;20024;-78
2021/08/03 04:20:27;;;;;;;16.88;15.07;;;13.20;91.60;;;;;;5110981;28;20096;-79
2021/08/03 04:22:53;;;;;;;15.77;14.18;;;13.30;91.60;;;;;;5106744;28;20031;-78
2021/08/03 04:25:18;;;;;;;15.18;13.57;;;13.40;91.60;;;;;;5092447;28;20428;-79
2021/08/03 04:27:44;;;;;;;15.88;14.38;;;13.50;91.60;;;;;;5110853;28;20023;-79
2021/08/03 04:30:13;;;;;;;16.38;14.90;;;13.60;91.60;;;;;;5111169;28;20412;-78
2021/08/03 04:32:39;;;;;;;16.73;15.20;;;13.70;91.60;;;;;;5111415;28;20471;-79
2021/08/03 04:35:06;;;;;;;18.10;16.25;;;13.80;91.50;;;;;;5105161;28;20093;-78
2021/08/03 04:37:40;;;;;;;16.52;14.82;;;13.70;91.40;;;;;;5089977;28;20035;-79
2021/08/03 04:40:07;;;;;;;18.52;16.58;;;13.60;91.40;;;;;;5095900;28;20026;-79
2021/08/03 04:42:33;;;;;;;18.58;16.80;;;13.50;91.40;;;;;;5113194;28;20024;-78
2021/08/03 04:44:59;;;;;;;19.17;16.08;;;13.40;91.60;;;;;;5111939;28;20055;-77
2021/08/03 04:47:24;;;;;;;18.48;16.52;;;13.50;91.80;;;;;;5111436;28;20494;-76
2021/08/03 04:49:50;;;;;;;19.33;16.50;;;13.50;91.80;;;;;;5094516;28;20028;-77
2021/08/03 04:52:16;;;;;;;18.40;16.00;;;13.50;91.80;;;;;;5073778;28;20035;-80
2021/08/03 04:54:41;;;;;;;20.08;17.92;;;13.40;91.80;;;;;;5110112;28;20112;-77
2021/08/03 04:57:07;;;;;;;20.17;18.13;;;13.40;91.90;;;;;;5090613;28;20520;-77
2021/08/03 04:59:33;;;;;;;25.23;21.25;;;13.30;92.00;;;;;;5073721;28;20039;-79
2021/08/03 05:02:01;;;;;;;22.10;19.80;;;13.30;92.10;;;;;;5113033;28;20078;-79
2021/08/03 05:04:29;;;;;;;21.48;19.27;;;13.30;92.20;;;;;;5116004;28;20027;-78
2021/08/03 05:06:55;;;;;;;21.73;19.63;;;13.30;92.30;;;;;;5098705;28;20028;-79
2021/08/03 05:09:21;;;;;;;21.77;19.52;;;13.40;92.30;;;;;;5108159;28;20386;-79
2021/08/03 05:11:46;;;;;;;23.15;20.77;;;13.30;92.30;;;;;;5082663;28;20024;-80
2021/08/03 05:14:12;;;;;;;24.10;20.75;;;13.40;92.40;;;;;;5094994;28;20028;-79
2021/08/03 05:16:38;;;;;;;25.88;22.15;;;13.40;92.40;;;;;;5083746;28;20020;-79
2021/08/03 05:19:03;;;;;;;23.98;20.70;;;13.40;92.40;;;;;;5115992;28;20027;-79
2021/08/03 05:21:29;;;;;;;23.65;21.15;;;13.40;92.40;;;;;;5076550;28;20024;-80
2021/08/03 05:23:54;;;;;;;25.27;22.65;;;13.40;92.50;;;;;;5117447;28;20488;-79
2021/08/03 05:26:20;;;;;;;28.42;24.15;;;13.40;92.50;;;;;;5097718;28;20028;-83
2021/08/03 05:28:46;;;;;;;28.45;24.73;;;13.40;92.50;;;;;;5115600;28;20032;-78
2021/08/03 05:31:13;;;;;;;28.77;25.63;;;13.50;92.60;;;;;;5097713;28;20363;-80
2021/08/03 05:33:39;;;;;;;30.02;25.80;;;13.50;92.60;;;;;;5115510;28;20028;-79
2021/08/03 05:36:04;;;;;;;28.20;25.15;;;13.60;92.70;;;;;;5081666;28;20058;-79
2021/08/03 05:38:30;;;;;;;32.95;26.45;;;13.60;92.60;;;;;;5099038;28;20376;-78
2021/08/03 05:40:56;;;;;;;33.22;27.73;;;13.70;92.60;;;;;;5120043;28;20513;-79
2021/08/03 05:43:21;;;;;;;27.63;24.73;;;13.70;92.60;;;;;;5085438;28;20101;-80
2021/08/03 05:45:47;;;;;;;29.25;25.02;;;13.70;92.50;;;;;;5119445;28;20464;-80
2021/08/03 05:48:14;;;;;;;28.38;24.77;;;13.70;92.60;;;;;;5122365;28;20456;-80
2021/08/03 05:50:40;;;;;;;32.08;26.73;;;13.80;92.60;;;;;;5119002;28;20106;-81
2021/08/03 05:53:05;;;;;;;33.65;30.15;;;13.80;92.50;;;;;;5115872;28;20066;-81
2021/08/03 05:55:31;;;;;;;32.10;28.50;;;13.80;92.50;;;;;;5084593;28;20031;-80
2021/08/03 05:57:57;;;;;;;32.08;28.02;;;13.90;92.50;;;;;;5120992;28;20028;-80
2021/08/03 06:00:22;;;;;;;30.27;26.42;;;13.90;92.40;;;;;;5114924;28;20028;-81
2021/08/03 06:02:48;;;;;;;29.13;26.00;;;14.00;92.40;;;;;;5115293;28;20044;-80
2021/08/03 06:05:13;;;;;;;28.27;24.20;;;14.00;92.30;;;;;;5080963;28;20031;-80
2021/08/03 06:07:42;;;;;;;29.83;23.85;;;14.10;92.30;;;;;;5114902;28;20114;-79
2021/08/03 06:10:15;;;;;;;26.40;22.98;;;14.30;92.20;;;;;;5095493;28;20030;-80
2021/08/03 06:12:45;;;;;;;25.08;19.88;;;14.40;92.10;;;;;;5098179;28;20020;-79
2021/08/03 06:15:13;;;;;;;23.45;20.95;;;14.50;92.10;;;;;;5103538;28;20011;-81
2021/08/03 06:17:48;;;;;;;22.23;19.92;;;14.70;92.00;;;;;;5111329;28;20211;-81
2021/08/03 06:20:14;;;;;;;23.20;20.75;;;14.80;91.80;;;;;;5116375;28;20032;-80
2021/08/03 06:22:40;;;;;;;24.33;20.35;;;14.90;91.60;;;;;;5092510;28;20471;-79
2021/08/03 06:25:09;;;;;;;25.27;22.30;;;15.00;91.40;;;;;;5096552;28;20028;-79
2021/08/03 06:27:34;;;;;;;25.25;22.48;;;15.10;91.20;;;;;;5113585;28;20084;-81
2021/08/03 06:30:06;;;;;;;24.25;21.67;;;15.00;91.00;;;;;;5109716;28;20054;-81
2021/08/03 06:32:32;;;;;;;28.75;23.25;;;15.10;91.00;;;;;;5094036;28;20078;-81
2021/08/03 06:34:58;;;;;;;25.55;22.17;;;15.20;91.00;;;;;;5113357;28;20451;-80
2021/08/03 06:37:24;;;;;;;23.00;19.75;;;15.30;90.90;;;;;;5092834;28;20052;-80
2021/08/03 06:39:49;;;;;;;25.73;21.10;;;15.40;90.80;;;;;;5095126;28;20138;-81
2021/08/03 06:43:01;;;;;;;28.15;22.35;;;15.40;90.60;;;;;;5115051;28;20028;-80
2021/08/03 06:45:33;;;;;;;21.40;18.90;;;15.40;90.60;;;;;;5107479;28;20066;-79
2021/08/03 06:48:22;;;;;;;24.92;21.35;;;15.40;90.60;;;;;;5107108;28;20068;-80
2021/08/03 06:51:03;;;;;;;23.90;20.83;;;15.50;90.60;;;;;;5105663;28;20084;-81
2021/08/03 06:53:29;;;;;;;24.05;19.35;;;15.50;90.60;;;;;;5112517;28;20461;-79
2021/08/03 06:55:57;;;;;;;23.15;19.45;;;15.60;90.70;;;;;;5108573;28;20131;-79
2021/08/03 06:58:30;;;;;;;27.60;22.15;;;15.80;90.70;;;;;;5113395;28;20028;-78
2021/08/03 07:00:58;;;;;;;25.35;21.90;;;15.80;90.50;;;;;;5112882;28;20076;-77
2021/08/03 07:03:29;;;;;;;23.05;20.63;;;15.90;90.30;;;;;;5110436;28;20043;-77
2021/08/03 07:05:56;;;;;;;23.58;21.17;;;16.00;90.20;;;;;;5107627;28;20012;-78
2021/08/03 07:08:22;;;;;;;25.48;21.90;;;16.10;90.20;;;;;;5089423;28;20028;-81
2021/08/03 07:10:54;;;;;;;25.20;20.98;;;16.20;90.00;;;;;;5108776;28;20099;-79
2021/08/03 07:13:21;;;;;;;26.10;21.77;;;16.40;89.90;;;;;;5090792;28;20096;-80
2021/08/03 07:15:47;;;;;;;28.08;22.88;;;16.50;89.60;;;;;;5102535;28;20099;-82
2021/08/03 07:18:18;;;;;;;28.13;23.52;;;16.50;89.10;;;;;;5094134;28;20078;-79
2021/08/03 07:20:44;;;;;;;26.98;23.60;;;16.50;88.90;;;;;;5110155;28;20168;-77
2021/08/03 07:23:11;;;;;;;29.15;24.85;;;16.50;88.70;;;;;;5111599;28;20035;-78
2021/08/03 07:25:37;;;;;;;28.05;25.23;;;16.50;88.70;;;;;;5110770;28;20020;-81
2021/08/03 07:28:03;;;;;;;28.83;23.90;;;16.50;88.60;;;;;;5112239;28;20050;-78
2021/08/03 07:30:29;;;;;;;25.13;22.33;;;16.60;88.30;;;;;;5112307;28;20068;-78
2021/08/03 07:32:54;;;;;;;26.38;22.25;;;16.60;88.10;;;;;;5092366;28;20035;-78
2021/08/03 07:35:20;;;;;;;26.45;22.30;;;16.80;88.00;;;;;;5104076;28;20039;-79
2021/08/03 07:37:46;;;;;;;27.73;24.80;;;16.80;87.80;;;;;;5097780;28;20047;-80
2021/08/03 07:40:12;;;;;;;32.53;23.95;;;16.90;87.80;;;;;;5114691;28;20027;-80
2021/08/03 07:42:38;;;;;;;28.67;25.13;;;17.00;87.00;;;;;;5094857;28;20032;-82
2021/08/03 07:45:06;;;;;;;28.67;24.20;;;17.00;87.00;;;;;;5109818;28;20088;-79
2021/08/03 07:47:34;;;;;;;28.50;24.13;;;17.10;87.00;;;;;;5107767;28;20494;-80
2021/08/03 07:50:00;;;;;;;29.92;24.55;;;17.10;87.20;;;;;;5109564;28;20197;-79
2021/08/03 07:52:26;;;;;;;31.25;25.08;;;17.00;86.70;;;;;;5108723;28;20031;-81
2021/08/03 07:54:52;;;;;;;26.83;23.75;;;16.90;87.00;;;;;;5092034;28;20027;-79
2021/08/03 07:57:17;;;;;;;29.17;24.83;;;16.80;86.80;;;;;;5099632;28;20064;-79
2021/08/03 07:59:43;;;;;;;28.20;25.17;;;16.70;87.20;;;;;;5098625;28;20085;-86
2021/08/03 08:02:09;;;;;;;27.13;23.73;;;16.80;87.50;;;;;;5098882;28;20058;-81
2021/08/03 08:04:35;;;;;;;26.25;23.40;;;16.80;87.30;;;;;;5115440;28;20035;-82
2021/08/03 08:07:00;;;;;;;28.40;24.52;;;16.80;86.80;;;;;;5105001;28;20024;-80
2021/08/03 08:09:26;;;;;;;26.17;23.40;;;16.90;86.70;;;;;;5076916;28;20146;-83
2021/08/03 08:11:52;;;;;;;30.63;25.00;;;17.00;86.40;;;;;;5099945;28;20038;-80
2021/08/03 08:14:17;;;;;;;28.70;25.02;;;17.10;86.00;;;;;;5099291;28;20024;-80
2021/08/03 08:16:43;;;;;;;34.97;27.90;;;17.20;85.30;;;;;;5082855;28;20463;-85
2021/08/03 08:19:09;;;;;;;32.28;28.10;;;17.30;85.10;;;;;;5100250;28;20383;-79
2021/08/03 08:21:36;;;;;;;41.38;33.97;;;17.50;85.60;;;;;;5081604;28;20115;-79
2021/08/03 08:24:03;;;;;;;36.30;30.50;;;17.60;85.20;;;;;;5112106;28;20046;-78
2021/08/03 08:26:30;;;;;;;33.67;28.00;;;17.70;84.60;;;;;;5099402;28;20027;-80
2021/08/03 08:28:56;;;;;;;29.83;26.23;;;17.80;84.60;;;;;;5095400;28;20092;-79
2021/08/03 08:31:22;;;;;;;28.75;23.98;;;17.80;83.80;;;;;;5098493;28;20063;-80
2021/08/03 08:33:50;;;;;;;25.25;22.58;;;17.70;84.80;;;;;;5102822;28;20038;-81
2021/08/03 08:36:16;;;;;;;24.13;21.52;;;17.70;84.70;;;;;;5120619;28;20024;-82
2021/08/03 08:38:42;;;;;;;23.58;21.10;;;17.70;83.90;;;;;;5121737;28;20112;-82
2021/08/03 08:41:12;;;;;;;33.38;27.25;;;17.60;83.90;;;;;;5086537;28;20031;-79
2021/08/03 08:43:40;;;;;;;25.08;22.38;;;17.70;84.10;;;;;;5120562;28;20494;-82
2021/08/03 08:46:08;;;;;;;27.45;22.90;;;17.70;83.50;;;;;;5118328;28;20693;-80
2021/08/03 08:48:37;;;;;;;22.98;20.55;;;17.80;84.00;;;;;;5103643;28;20039;-79
2021/08/03 08:51:04;;;;;;;21.73;19.38;;;17.80;83.20;;;;;;5115860;28;20098;-82
2021/08/03 08:53:33;;;;;;;24.25;21.02;;;17.60;83.00;;;;;;5119433;28;20028;-81
2021/08/03 08:55:59;;;;;;;25.73;21.45;;;17.50;84.00;;;;;;5103428;28;20479;-80
2021/08/03 08:58:25;;;;;;;23.73;20.92;;;17.50;84.00;;;;;;5115606;28;20107;-80
2021/08/03 09:00:51;;;;;;;25.20;21.25;;;17.60;84.00;;;;;;5090793;28;20048;-83
2021/08/03 09:03:16;;;;;;;25.45;21.35;;;17.50;83.10;;;;;;5108519;28;20074;-79
2021/08/03 09:05:42;;;;;;;22.25;19.85;;;17.40;83.40;;;;;;5114846;28;20027;-80
2021/08/03 09:08:10;;;;;;;26.20;22.85;;;17.40;83.80;;;;;;5123216;28;20490;-80
2021/08/03 09:10:47;;;;;;;22.55;20.20;;;17.50;83.70;;;;;;5086243;28;20050;-83
2021/08/03 09:13:20;;;;;;;21.05;18.98;;;17.70;83.50;;;;;;5109409;28;20032;-80
2021/08/03 09:15:55;;;;;;;22.25;17.77;;;17.70;83.10;;;;;;5117561;28;20024;-81
2021/08/03 09:18:36;;;;;;;21.00;18.80;;;17.90;83.00;;;;;;5111444;28;20047;-82
2021/08/03 09:21:03;;;;;;;19.63;16.30;;;18.10;82.80;;;;;;5119984;28;20024;-81
2021/08/03 09:23:43;;;;;;;17.10;15.43;;;18.10;81.50;;;;;;5095214;28;20081;-81
2021/08/03 09:26:09;;;;;;;19.13;17.25;;;18.10;81.20;;;;;;5101547;28;20213;-82
2021/08/03 09:29:00;;;;;;;20.48;17.30;;;18.10;81.30;;;;;;5120146;28;20023;-80
2021/08/03 09:31:26;;;;;;;17.30;15.57;;;18.10;81.70;;;;;;5105095;28;20038;-80
2021/08/03 09:33:51;;;;;;;17.10;15.18;;;18.10;81.80;;;;;;5103866;28;20547;-83
2021/08/03 09:36:17;;;;;;;19.35;16.52;;;18.20;81.70;;;;;;5101236;28;20035;-82
2021/08/03 09:38:43;;;;;;;16.95;14.82;;;18.20;81.30;;;;;;5085515;28;20335;-82
2021/08/03 09:41:09;;;;;;;19.88;17.00;;;18.30;82.00;;;;;;5118695;28;20035;-81
2021/08/03 09:43:35;;;;;;;23.25;16.75;;;18.40;81.90;;;;;;5116790;28;20027;-82
2021/08/03 09:46:02;;;;;;;20.33;16.38;;;18.40;81.50;;;;;;5116525;28;20031;-81
2021/08/03 09:48:30;;;;;;;20.67;17.40;;;18.40;81.50;;;;;;5106599;28;20028;-81
2021/08/03 09:51:14;;;;;;;19.67;17.65;;;18.40;81.50;;;;;;5116571;28;20059;-84
2021/08/03 09:53:49;;;;;;;21.13;17.25;;;18.20;80.90;;;;;;5110847;28;20044;-82
2021/08/03 09:56:35;;;;;;;20.20;18.05;;;18.00;80.90;;;;;;5113835;28;20383;-82
2021/08/03 09:59:09;;;;;;;24.35;19.30;;;17.80;81.20;;;;;;5109072;28;20040;-83
2021/08/03 10:01:40;;;;;;;26.02;20.80;;;17.80;81.80;;;;;;5099779;28;20131;-82
2021/08/03 10:04:11;;;;;;;29.77;24.83;;;17.90;82.00;;;;;;5121950;28;20038;-82
2021/08/03 10:06:39;;;;;;;30.02;23.83;;;18.00;82.40;;;;;;5122142;28;20134;-83
2021/08/03 10:09:07;;;;;;;21.73;19.42;;;18.20;82.50;;;;;;5119008;28;20045;-83
2021/08/03 10:11:33;;;;;;;25.83;21.50;;;18.30;81.80;;;;;;5114134;27;20032;-83
2021/08/03 10:13:59;;;;;;;23.15;19.10;;;18.30;81.90;;;;;;5105371;28;20028;-81
2021/08/03 10:16:26;;;;;;;23.90;21.40;;;18.40;81.70;;;;;;5119803;28;20110;-83
2021/08/03 10:18:58;;;;;;;23.17;20.08;;;18.40;81.80;;;;;;5093560;28;20039;-82
2021/08/03 10:21:28;;;;;;;23.95;21.27;;;18.40;82.00;;;;;;5107394;28;20024;-81
2021/08/03 10:24:00;;;;;;;20.35;18.20;;;18.50;81.90;;;;;;5110264;28;20031;-82
2021/08/03 10:26:25;;;;;;;18.50;16.40;;;18.50;81.80;;;;;;5108283;28;20028;-82
2021/08/03 10:29:24;;;;;;;19.98;17.45;;;18.50;81.60;;;;;;5112797;28;20024;-83
2021/08/03 10:31:51;;;;;;;20.27;18.17;;;18.60;81.60;;;;;;5110535;28;20043;-82
2021/08/03 10:34:44;;;;;;;20.45;18.10;;;18.60;81.50;;;;;;5108464;28;20047;-82
2021/08/03 10:37:11;;;;;;;19.20;15.90;;;18.60;81.50;;;;;;5112105;28;20023;-81
2021/08/03 10:39:57;;;;;;;18.70;16.77;;;18.60;81.50;;;;;;5112809;28;20099;-81
2021/08/03 10:42:27;;;;;;;19.15;15.82;;;18.50;81.10;;;;;;5093475;28;20039;-82
2021/08/03 10:44:58;;;;;;;17.25;15.38;;;18.50;80.90;;;;;;5116057;28;20089;-84
2021/08/03 10:47:33;;;;;;;18.13;15.75;;;18.50;80.60;;;;;;5110021;28;20016;-84
2021/08/03 10:50:08;;;;;;;17.67;15.77;;;18.50;80.30;;;;;;5113143;28;20020;-81
2021/08/03 10:52:48;;;;;;;16.60;14.98;;;18.60;79.90;;;;;;5114524;28;20471;-82
2021/08/03 10:55:33;;;;;;;16.35;14.65;;;18.60;79.60;;;;;;5119623;28;20027;-82
2021/08/03 10:58:16;;;;;;;15.80;13.07;;;18.70;79.40;;;;;;5114271;28;20075;-83
2021/08/03 11:00:47;;;;;;;19.23;14.23;;;18.80;79.20;;;;;;5121311;28;20024;-80
2021/08/03 11:03:34;;;;;;;15.15;13.48;;;18.80;79.00;;;;;;5116451;28;20482;-80
2021/08/03 11:06:05;;;;;;;16.33;14.63;;;18.90;79.00;;;;;;5128197;28;20072;-81
2021/08/03 11:08:35;;;;;;;17.90;14.88;;;18.90;78.50;;;;;;5132111;28;20063;-83
2021/08/03 11:11:25;;;;;;;18.00;16.10;;;19.00;78.30;;;;;;5122691;28;20028;-83
2021/08/03 11:13:56;;;;;;;17.45;15.27;;;19.10;77.80;;;;;;5109775;28;20035;-83
2021/08/03 11:16:21;;;;;;;18.23;15.82;;;19.00;78.10;;;;;;5119726;28;20030;-81
2021/08/03 11:18:47;;;;;;;19.45;16.08;;;19.10;78.10;;;;;;5110864;28;20023;-82
2021/08/03 11:21:15;;;;;;;19.05;15.95;;;19.20;78.10;;;;;;5116753;28;20031;-81
2021/08/03 11:24:06;;;;;;;17.73;15.82;;;19.10;77.50;;;;;;5118983;28;20038;-83
2021/08/03 11:26:53;;;;;;;16.63;14.90;;;19.20;77.60;;;;;;5117734;28;20087;-83
2021/08/03 11:29:21;;;;;;;17.77;15.88;;;19.40;77.20;;;;;;5105658;28;20471;-83
2021/08/03 11:32:01;;;;;;;17.60;15.43;;;19.50;76.80;;;;;;5110424;28;20027;-82
2021/08/03 11:34:34;;;;;;;17.77;14.07;;;19.60;76.20;;;;;;5109816;28;20019;-84
2021/08/03 11:37:06;;;;;;;17.55;14.20;;;19.90;75.50;;;;;;5106778;28;20035;-84
2021/08/03 11:39:41;;;;;;;15.45;13.82;;;20.10;74.60;;;;;;5110480;28;20027;-84
2021/08/03 11:42:07;;;;;;;15.20;13.27;;;20.50;74.70;;;;;;5108987;28;20100;-84
2021/08/03 11:44:34;;;;;;;15.80;14.00;;;20.70;73.00;;;;;;5094270;28;20035;-83
2021/08/03 11:47:03;;;;;;;14.35;12.95;;;21.00;72.80;;;;;;5084582;28;20031;-81
2021/08/03 11:49:33;;;;;;;16.05;14.10;;;21.30;72.00;;;;;;5117155;28;20036;-82
2021/08/03 11:52:10;;;;;;;16.45;13.40;;;21.40;70.10;;;;;;5117422;28;20428;-83
2021/08/03 11:54:36;;;;;;;15.60;13.57;;;21.50;69.40;;;;;;5112310;28;20062;-84
2021/08/03 11:57:18;;;;;;;14.27;12.85;;;21.30;68.10;;;;;;5109866;28;20028;-82
2021/08/03 11:59:44;;;;;;;14.83;13.33;;;21.00;69.60;;;;;;5099000;28;20050;-82
2021/08/03 12:02:09;;;;;;;15.25;13.23;;;20.80;70.70;;;;;;5074514;28;20356;-82
2021/08/03 12:04:35;;;;;;;14.88;12.13;;;20.80;70.40;;;;;;5109395;28;20307;-83
2021/08/03 12:07:01;;;;;;;16.00;14.32;;;20.60;70.00;;;;;;5084189;28;20041;-82
2021/08/03 12:09:27;;;;;;;15.70;13.38;;;20.60;69.60;;;;;;5101018;28;20035;-83
2021/08/03 12:11:59;;;;;;;15.68;13.07;;;20.40;70.30;;;;;;5121519;28;20035;-82
2021/08/03 12:14:31;;;;;;;;;;;20.10;70.40;;;;;;5126340;28;20023;-83
2021/08/03 12:16:57;;;;;;;15.90;14.25;;;20.10;71.60;;;;;;5123523;28;19907;-82
2021/08/03 12:19:35;;;;;;;15.57;13.07;;;20.10;71.90;;;;;;5105766;28;20040;-83
2021/08/03 12:22:02;;;;;;;13.68;12.18;;;20.20;72.40;;;;;;5106184;28;20024;-84
2021/08/03 12:24:29;;;;;;;20.02;14.65;;;20.30;71.60;;;;;;5106221;28;20020;-82
2021/08/03 12:27:11;;;;;;;13.65;12.07;;;20.30;70.20;;;;;;5087413;28;20029;-82
2021/08/03 12:29:37;;;;;;;15.52;13.07;;;20.40;71.00;;;;;;5112997;28;20383;-83
2021/08/03 12:32:04;;;;;;;15.38;12.32;;;20.50;71.50;;;;;;5124320;28;20043;-83
2021/08/03 12:34:36;;;;;;;17.05;12.20;;;20.50;71.50;;;;;;5102791;28;20032;-82
2021/08/03 12:37:02;;;;;;;14.85;11.82;;;20.50;71.50;;;;;;5089226;28;20040;-84
2021/08/03 12:39:41;;;;;;;13.93;10.90;;;20.60;71.20;;;;;;5103784;28;20048;-82